Marion Center, Pennsylvania
Current Conditions -  °F | °C
As of 10:15 AM on Thursday 18 Dec 2014 (Local Time) from KIDI Reporting Station
Haze Haze  
Wind Chill: 21°   Ceiling: 1600
Heat Index: 28°   Visibility: 2.5mi
Dew Point: 25°   Wind: 7mph
Humidity: 86%   Direction: 300°WNW
Pressure: 30.18"   Gusts: NA
Location:  40.77°N, 79.05°W
Report Text: KIDI 181515Z AUTO 30006KT 2 1/2SM BR BKN016 OVC024 M02/M04 A3018 RMK A01
Loading
Personal Weather Stations






























Interactive Weather Map New forecast layout! Learn more

10-Day Weather Forecast

Advertisements
Track Severe Weather on mobile